createdAt,value
2019-04-14T00:01:21.617Z,20.73
2019-04-14T00:04:18.838Z,19.83
2019-04-14T00:06:48.371Z,20.73
2019-04-14T00:09:20.572Z,23.20
2019-04-14T00:11:50.489Z,28.87
2019-04-14T00:14:20.774Z,28.50
2019-04-14T00:16:51.018Z,30.17
2019-04-14T00:19:21.684Z,30.33
2019-04-14T00:21:52.149Z,25.93
2019-04-14T00:24:22.695Z,29.17
2019-04-14T00:26:53.110Z,30.50
2019-04-14T00:29:22.363Z,30.23
2019-04-14T00:31:53.719Z,27.30
2019-04-14T00:34:44.252Z,26.53
2019-04-14T00:37:40.220Z,30.53
2019-04-14T00:40:12.895Z,29.90
2019-04-14T00:42:51.592Z,29.63
2019-04-14T00:45:39.394Z,30.70
2019-04-14T00:48:22.964Z,31.43
2019-04-14T00:50:52.352Z,30.00
2019-04-14T00:53:22.606Z,32.93
2019-04-14T00:55:53.222Z,28.73
2019-04-14T00:58:23.664Z,28.97
2019-04-14T01:00:53.803Z,30.90
2019-04-14T01:03:24.283Z,29.93
2019-04-14T01:05:54.775Z,31.93
2019-04-14T01:08:24.936Z,30.23
2019-04-14T01:10:54.200Z,31.13
2019-04-14T01:13:24.535Z,36.67
2019-04-14T01:16:00.601Z,34.97
2019-04-14T01:18:25.517Z,33.67
2019-04-14T01:20:55.654Z,33.97
2019-04-14T01:23:26.035Z,35.57
2019-04-14T01:25:56.427Z,34.20
2019-04-14T01:28:26.569Z,33.07
2019-04-14T01:30:56.597Z,33.37
2019-04-14T01:33:27.173Z,34.83
2019-04-14T01:35:57.408Z,33.97
2019-04-14T01:38:27.591Z,37.17
2019-04-14T01:40:57.724Z,37.23
2019-04-14T01:43:27.809Z,39.20
2019-04-14T01:46:07.164Z,37.17
2019-04-14T01:48:28.099Z,37.27
2019-04-14T01:51:15.614Z,37.13
2019-04-14T01:53:55.387Z,38.60
2019-04-14T01:56:47.136Z,39.30
2019-04-14T01:59:17.308Z,36.57
2019-04-14T02:01:47.832Z,38.43
2019-04-14T02:04:18.116Z,39.20
2019-04-14T02:06:48.393Z,41.30
2019-04-14T02:09:18.624Z,38.67
2019-04-14T02:11:48.844Z,40.30
2019-04-14T02:14:19.068Z,43.60
2019-04-14T02:16:52.602Z,41.77
2019-04-14T02:19:19.868Z,45.90
2019-04-14T02:21:49.967Z,42.40
2019-04-14T02:24:19.985Z,39.10
2019-04-14T02:26:50.276Z,41.80
2019-04-14T02:29:21.080Z,46.40
2019-04-14T02:32:19.891Z,43.30
2019-04-14T02:34:47.986Z,38.77
2019-04-14T02:37:19.697Z,41.03
2019-04-14T02:39:56.071Z,40.37
2019-04-14T02:42:32.053Z,39.20
2019-04-14T02:44:57.723Z,40.23
2019-04-14T02:50:05.391Z,37.90
2019-04-14T02:52:29.854Z,39.20
2019-04-14T02:57:24.194Z,37.80
2019-04-14T03:00:05.166Z,36.83
2019-04-14T03:02:29.622Z,37.23
2019-04-14T03:05:13.381Z,39.80
2019-04-14T03:07:46.153Z,37.00
2019-04-14T03:09:55.740Z,39.10
2019-04-14T03:12:31.543Z,39.57
2019-04-14T03:15:01.455Z,40.97
2019-04-14T03:17:47.311Z,39.47
2019-04-14T03:20:35.622Z,37.83
2019-04-14T03:23:17.317Z,40.00
2019-04-14T03:25:42.987Z,40.23
2019-04-14T03:34:05.247Z,40.73
2019-04-14T03:38:44.881Z,37.53
2019-04-14T03:41:27.358Z,37.47
2019-04-14T03:43:41.015Z,33.60
2019-04-14T03:46:27.777Z,33.83
2019-04-14T03:51:28.400Z,28.77
2019-04-14T03:53:48.077Z,28.63
2019-04-14T03:56:31.317Z,26.77
2019-04-14T03:59:01.883Z,23.37
2019-04-14T04:01:32.254Z,20.20
2019-04-14T04:04:01.562Z,20.33
2019-04-14T04:06:31.363Z,19.73
2019-04-14T04:09:01.877Z,20.10
2019-04-14T04:11:32.273Z,21.33
2019-04-14T04:14:01.615Z,21.07
2019-04-14T04:16:52.911Z,22.87
2019-04-14T04:19:56.352Z,22.17
2019-04-14T04:22:48.575Z,22.20
2019-04-14T04:25:42.750Z,20.80
2019-04-14T04:28:36.701Z,21.73
2019-04-14T04:31:14.244Z,20.20
2019-04-14T04:33:50.876Z,20.20
2019-04-14T04:36:24.815Z,20.83
2019-04-14T04:38:57.679Z,20.23
2019-04-14T04:41:27.568Z,19.33
2019-04-14T04:43:58.178Z,22.30
2019-04-14T04:46:28.680Z,21.77
2019-04-14T04:49:08.031Z,21.03
2019-04-14T04:51:29.078Z,20.97
2019-04-14T04:53:59.434Z,21.10
2019-04-14T04:56:29.759Z,19.73
2019-04-14T04:58:59.114Z,19.57
2019-04-14T05:01:28.287Z,20.87
2019-04-14T05:03:58.748Z,21.20
2019-04-14T05:07:03.649Z,20.37
2019-04-14T05:09:58.068Z,19.67
2019-04-14T05:12:50.149Z,19.07
2019-04-14T05:15:53.746Z,20.33
2019-04-14T05:18:24.791Z,20.73
2019-04-14T05:20:55.234Z,19.30
2019-04-14T05:23:25.661Z,18.83
2019-04-14T05:25:56.093Z,19.63
2019-04-14T05:28:26.570Z,21.13
2019-04-14T05:30:56.877Z,21.63
2019-04-14T05:33:27.155Z,20.83
2019-04-14T05:35:57.415Z,22.80
2019-04-14T05:38:29.450Z,21.30
2019-04-14T05:40:58.395Z,22.30
2019-04-14T05:43:36.716Z,24.00
2019-04-14T05:45:59.151Z,23.23
2019-04-14T05:48:29.408Z,21.50
2019-04-14T05:50:59.857Z,20.30
2019-04-14T05:53:30.440Z,23.90
2019-04-14T05:55:59.887Z,22.80
2019-04-14T05:58:29.708Z,28.43
2019-04-14T06:01:00.202Z,28.47
2019-04-14T06:03:29.924Z,26.20
2019-04-14T06:05:59.369Z,27.03
2019-04-14T06:08:28.532Z,24.33
2019-04-14T06:10:57.854Z,25.77
2019-04-14T06:13:27.081Z,26.70
2019-04-14T06:15:56.246Z,24.80
2019-04-14T06:18:25.506Z,25.87
2019-04-14T06:20:54.714Z,24.87
2019-04-14T06:23:23.875Z,25.10
2019-04-14T06:25:53.142Z,25.00
2019-04-14T06:28:22.336Z,26.47
2019-04-14T06:31:16.652Z,27.93
2019-04-14T06:33:51.483Z,31.53
2019-04-14T06:36:37.013Z,34.20
2019-04-14T06:39:17.338Z,35.57
2019-04-14T06:41:46.596Z,34.77
2019-04-14T06:44:15.795Z,35.43
2019-04-14T06:46:45.036Z,33.83
2019-04-14T06:49:14.274Z,37.03
2019-04-14T06:51:43.520Z,34.87
2019-04-14T06:54:12.700Z,32.47
2019-04-14T06:56:42.154Z,31.90
2019-04-14T06:59:11.382Z,33.93
2019-04-14T07:01:40.578Z,33.00
2019-04-14T07:04:09.806Z,31.37
2019-04-14T07:06:39.085Z,31.83
2019-04-14T07:09:08.398Z,29.03
2019-04-14T07:11:37.685Z,32.10
2019-04-14T07:14:06.855Z,34.77
2019-04-14T07:16:36.104Z,32.03
2019-04-14T07:19:05.446Z,33.90
2019-04-14T07:21:34.689Z,32.13
2019-04-14T07:24:03.917Z,31.17
2019-04-14T07:26:33.181Z,31.13
2019-04-14T07:29:02.417Z,27.80
2019-04-14T07:31:54.734Z,28.53
2019-04-14T07:34:36.398Z,28.13
2019-04-14T07:37:19.215Z,25.00
2019-04-14T07:40:01.714Z,27.30
2019-04-14T07:42:41.066Z,25.37
2019-04-14T07:45:35.174Z,24.33
2019-04-14T07:48:27.561Z,24.97
2019-04-14T07:51:14.648Z,25.30
2019-04-14T07:53:55.662Z,24.33
2019-04-14T07:56:56.010Z,25.37
2019-04-14T07:59:33.159Z,24.53
2019-04-14T08:02:36.510Z,23.57
2019-04-14T08:05:11.681Z,21.37
2019-04-14T08:07:41.028Z,23.70
2019-04-14T08:10:10.516Z,24.17
2019-04-14T08:12:39.765Z,21.63
2019-04-14T08:15:09.265Z,22.60
2019-04-14T08:17:38.475Z,21.93
2019-04-14T08:20:08.307Z,22.00
2019-04-14T08:22:37.583Z,22.67
2019-04-14T08:25:07.196Z,20.37
2019-04-14T08:27:36.407Z,20.10
2019-04-14T08:30:07.099Z,21.40
2019-04-14T08:32:36.388Z,21.57
2019-04-14T08:35:06.181Z,20.60
2019-04-14T08:37:35.512Z,19.63
2019-04-14T08:40:05.183Z,20.60
2019-04-14T08:42:53.486Z,19.73
2019-04-14T08:45:34.529Z,19.80
2019-04-14T08:48:25.667Z,19.37
2019-04-14T08:51:13.807Z,19.03
2019-04-14T08:53:47.088Z,18.97
2019-04-14T08:56:29.914Z,18.20
2019-04-14T08:59:18.247Z,18.63
2019-04-14T09:02:18.576Z,20.40
2019-04-14T09:04:54.236Z,18.87
2019-04-14T09:07:35.688Z,18.73
2019-04-14T09:10:12.484Z,18.23
2019-04-14T09:12:42.207Z,18.73
2019-04-14T09:15:11.513Z,20.97
2019-04-14T09:17:40.886Z,17.73
2019-04-14T09:20:10.618Z,18.47
2019-04-14T09:22:40.033Z,18.20
2019-04-14T09:25:09.937Z,18.23
2019-04-14T09:27:39.168Z,19.93
2019-04-14T09:32:55.997Z,17.80
2019-04-14T09:35:25.390Z,18.17
2019-04-14T09:37:54.701Z,18.83
2019-04-14T09:40:24.202Z,17.50
2019-04-14T09:42:53.507Z,18.00
2019-04-14T09:45:22.862Z,18.17
2019-04-14T09:47:52.084Z,16.53
2019-04-14T09:50:21.312Z,17.83
2019-04-14T09:52:50.724Z,30.40
2019-04-14T09:55:20.084Z,17.87
2019-04-14T09:57:49.476Z,19.73
2019-04-14T10:00:20.186Z,17.17
2019-04-14T10:02:49.684Z,16.40
2019-04-14T10:05:19.093Z,17.10
2019-04-14T10:07:48.563Z,17.53
2019-04-14T10:10:18.120Z,16.83
2019-04-14T10:12:47.414Z,16.67
2019-04-14T10:15:16.780Z,16.87
2019-04-14T10:17:46.007Z,17.30
2019-04-14T10:20:15.415Z,17.03
2019-04-14T10:22:44.916Z,16.80
2019-04-14T10:25:14.184Z,17.13
2019-04-14T10:27:43.510Z,17.60
2019-04-14T10:30:12.790Z,16.67
2019-04-14T10:32:42.065Z,16.93
2019-04-14T10:35:11.350Z,17.37
2019-04-14T10:37:40.623Z,17.30
2019-04-14T10:40:11.290Z,17.60
2019-04-14T10:42:40.804Z,17.53
2019-04-14T10:45:10.107Z,18.13
2019-04-14T10:47:39.419Z,17.63
2019-04-14T10:50:08.787Z,17.23
2019-04-14T10:52:38.082Z,17.27
2019-04-14T10:55:07.849Z,17.27
2019-04-14T10:57:37.075Z,17.97
2019-04-14T11:00:09.115Z,17.00
2019-04-14T11:02:38.435Z,18.00
2019-04-14T11:05:08.220Z,18.90
2019-04-14T11:07:37.597Z,17.20
2019-04-14T11:10:07.639Z,17.37
2019-04-14T11:12:36.964Z,17.73
2019-04-14T11:15:07.048Z,17.20
2019-04-14T11:17:36.379Z,20.33
2019-04-14T11:20:06.419Z,17.50
2019-04-14T11:22:35.793Z,16.87
2019-04-14T11:25:05.117Z,17.20
2019-04-14T11:27:34.622Z,17.20
2019-04-14T11:30:04.727Z,16.43
2019-04-14T11:32:45.474Z,17.77
2019-04-14T11:35:21.896Z,16.87
2019-04-14T11:38:01.467Z,17.53
2019-04-14T11:40:34.846Z,17.00
2019-04-14T11:43:04.210Z,17.07
2019-04-14T11:45:33.454Z,16.30
2019-04-14T11:48:02.820Z,16.07
2019-04-14T11:50:32.141Z,17.27
2019-04-14T11:53:01.398Z,16.23
2019-04-14T11:55:30.713Z,16.73
2019-04-14T11:58:00.074Z,16.47
2019-04-14T12:00:48.241Z,15.97
2019-04-14T12:03:32.302Z,15.90
2019-04-14T12:06:22.882Z,15.67
2019-04-14T12:08:57.675Z,16.07
2019-04-14T12:11:26.905Z,19.97
2019-04-14T12:13:56.369Z,15.77
2019-04-14T12:16:25.678Z,15.97
2019-04-14T12:18:55.017Z,15.87
2019-04-14T12:21:24.293Z,15.23
2019-04-14T12:23:53.649Z,15.57
2019-04-14T12:26:22.920Z,15.33
2019-04-14T12:28:53.717Z,14.97
2019-04-14T12:31:24.192Z,15.33
2019-04-14T12:33:53.797Z,14.90
2019-04-14T12:36:23.106Z,15.07
2019-04-14T12:38:52.352Z,14.27
2019-04-14T12:41:27.394Z,15.40
2019-04-14T12:44:15.638Z,14.37
2019-04-14T12:46:54.874Z,14.73
2019-04-14T12:49:34.818Z,14.40
2019-04-14T12:52:23.030Z,15.07
2019-04-14T12:54:52.313Z,14.50
2019-04-14T12:57:30.239Z,14.83
2019-04-14T12:59:59.621Z,14.27
2019-04-14T13:02:40.600Z,15.17
2019-04-14T13:05:10.188Z,14.60
2019-04-14T13:07:39.508Z,15.03
2019-04-14T13:10:09.132Z,14.57
2019-04-14T13:12:38.432Z,15.43
2019-04-14T13:15:08.080Z,14.87
2019-04-14T13:17:37.439Z,16.10
2019-04-14T13:20:07.038Z,14.97
2019-04-14T13:22:36.354Z,14.40
2019-04-14T13:25:05.882Z,15.43
2019-04-14T13:27:35.417Z,14.60
2019-04-14T13:30:06.213Z,16.57
2019-04-14T13:32:36.442Z,15.10
2019-04-14T13:35:06.416Z,14.53
2019-04-14T13:37:35.785Z,15.00
2019-04-14T13:40:07.330Z,14.27
2019-04-14T13:42:36.654Z,15.20
2019-04-14T13:45:06.773Z,14.73
2019-04-14T13:47:36.086Z,14.83
2019-04-14T13:50:05.759Z,14.63
2019-04-14T13:52:46.033Z,15.10
2019-04-14T13:55:07.308Z,13.87
2019-04-14T13:57:36.767Z,15.00
2019-04-14T14:00:08.426Z,14.77
2019-04-14T14:02:38.019Z,13.93
2019-04-14T14:05:07.767Z,14.30
2019-04-14T14:07:37.063Z,13.57
2019-04-14T14:10:08.335Z,13.47
2019-04-14T14:12:43.678Z,14.30
2019-04-14T14:15:30.455Z,15.00
2019-04-14T14:18:18.715Z,13.67
2019-04-14T14:21:05.765Z,13.63
2019-04-14T14:23:52.698Z,14.03
2019-04-14T14:26:23.512Z,15.60
2019-04-14T14:28:52.893Z,13.43
2019-04-14T14:31:22.522Z,13.67
2019-04-14T14:33:51.780Z,12.67
2019-04-14T14:36:21.052Z,13.40
2019-04-14T14:38:50.364Z,13.40
2019-04-14T14:41:19.728Z,13.87
2019-04-14T14:43:49.137Z,14.57
2019-04-14T14:46:32.939Z,13.00
2019-04-14T14:49:21.159Z,13.27
2019-04-14T14:51:56.466Z,14.10
2019-04-14T14:54:25.842Z,13.00
2019-04-14T14:56:55.247Z,14.07
2019-04-14T14:59:24.701Z,12.37
2019-04-14T15:01:54.122Z,13.70
2019-04-14T15:04:23.536Z,12.30
2019-04-14T15:06:52.797Z,13.73
2019-04-14T15:09:22.180Z,12.17
2019-04-14T15:11:51.429Z,13.40
2019-04-14T15:14:20.738Z,14.23
2019-04-14T15:16:50.010Z,13.37
2019-04-14T15:19:19.329Z,14.07
2019-04-14T15:21:48.662Z,13.43
2019-04-14T15:24:18.090Z,14.00
2019-04-14T15:26:47.309Z,13.60
2019-04-14T15:29:16.602Z,13.27
2019-04-14T15:31:45.895Z,14.07
2019-04-14T15:34:15.151Z,14.57
2019-04-14T15:36:44.440Z,14.50
2019-04-14T15:39:13.775Z,14.17
2019-04-14T15:41:43.039Z,15.57
2019-04-14T15:44:12.354Z,14.60
2019-04-14T15:46:41.678Z,14.27
2019-04-14T15:49:10.882Z,16.37
2019-04-14T15:51:40.241Z,13.60
2019-04-14T15:54:09.530Z,16.47
2019-04-14T15:56:55.088Z,13.70
2019-04-14T15:59:49.414Z,14.30
2019-04-14T16:02:52.753Z,16.73
2019-04-14T16:05:25.645Z,13.90
2019-04-14T16:08:06.746Z,16.47
2019-04-14T16:10:41.194Z,14.87
2019-04-14T16:13:29.368Z,15.40
2019-04-14T16:16:07.443Z,13.43
2019-04-14T16:18:54.302Z,13.93
2019-04-14T16:21:23.680Z,12.93
2019-04-14T16:23:52.952Z,13.53
2019-04-14T16:26:44.138Z,12.50
2019-04-14T16:29:25.802Z,14.57
2019-04-14T16:32:14.103Z,13.33
2019-04-14T16:34:46.343Z,13.33
2019-04-14T16:37:15.633Z,13.73
2019-04-14T16:39:44.902Z,12.10
2019-04-14T16:42:14.210Z,13.10
2019-04-14T16:44:43.737Z,12.67
2019-04-14T16:47:13.220Z,12.93
2019-04-14T16:49:44.338Z,13.70
2019-04-14T16:52:33.983Z,14.77
2019-04-14T16:55:22.134Z,12.57
2019-04-14T16:58:09.472Z,11.77
2019-04-14T17:00:42.152Z,13.73
2019-04-14T17:03:11.564Z,12.77
2019-04-14T17:05:40.974Z,14.70
2019-04-14T17:08:10.483Z,12.67
2019-04-14T17:10:39.812Z,15.57
2019-04-14T17:13:09.112Z,13.23
2019-04-14T17:15:48.736Z,14.73
2019-04-14T17:18:46.431Z,13.50
2019-04-14T17:21:52.863Z,12.63
2019-04-14T17:24:53.183Z,13.27
2019-04-14T17:27:47.249Z,12.77
2019-04-14T17:30:33.511Z,12.43
2019-04-14T17:33:12.830Z,14.00
2019-04-14T17:36:02.401Z,13.07
2019-04-14T17:38:53.402Z,12.70
2019-04-14T17:41:30.191Z,12.07
2019-04-14T17:44:10.691Z,13.03
2019-04-14T17:46:50.574Z,12.97
2019-04-14T17:49:30.561Z,13.57
2019-04-14T17:52:17.720Z,13.57
2019-04-14T17:55:09.134Z,12.07
2019-04-14T17:57:55.551Z,13.13
2019-04-14T18:00:52.842Z,11.87
2019-04-14T18:03:35.630Z,13.37
2019-04-14T18:06:24.317Z,12.17
2019-04-14T18:09:07.063Z,16.20
2019-04-14T18:11:43.476Z,14.27
2019-04-14T18:14:34.524Z,14.83
2019-04-14T18:17:12.048Z,18.80
2019-04-14T18:19:47.083Z,16.03
2019-04-14T18:22:16.480Z,16.30
2019-04-14T18:24:46.054Z,15.23
2019-04-14T18:27:15.466Z,16.70
2019-04-14T18:29:56.129Z,16.37
2019-04-14T18:32:44.375Z,15.50
2019-04-14T18:35:17.682Z,14.77
2019-04-14T18:37:56.682Z,17.60
2019-04-14T18:40:41.653Z,17.07
2019-04-14T18:43:28.399Z,17.07
2019-04-14T18:46:02.737Z,19.47
2019-04-14T18:48:38.763Z,18.90
2019-04-14T18:51:15.951Z,18.40
2019-04-14T18:53:53.058Z,17.33
2019-04-14T18:56:34.321Z,18.70
2019-04-14T18:59:25.280Z,20.17
2019-04-14T19:01:54.717Z,16.40
2019-04-14T19:04:23.969Z,15.80
2019-04-14T19:06:53.421Z,19.60
2019-04-14T19:09:22.837Z,18.20
2019-04-14T19:12:05.494Z,18.63
2019-04-14T19:14:36.747Z,18.00
2019-04-14T19:17:27.868Z,18.33
2019-04-14T19:20:01.674Z,18.23
2019-04-14T19:22:28.500Z,21.97
2019-04-14T19:25:07.795Z,21.40
2019-04-14T19:27:29.092Z,28.83
2019-04-14T19:29:58.387Z,22.60
2019-04-14T19:32:27.637Z,20.37
2019-04-14T19:34:57.057Z,17.90
2019-04-14T19:37:26.357Z,19.03
2019-04-14T19:39:55.689Z,20.93
2019-04-14T19:42:24.979Z,21.27
2019-04-14T19:44:54.360Z,19.90
2019-04-14T19:47:23.640Z,19.57
2019-04-14T19:49:52.908Z,19.57
2019-04-14T19:52:22.337Z,19.67
2019-04-14T19:54:51.575Z,17.93
2019-04-14T19:57:20.940Z,19.50
2019-04-14T19:59:50.174Z,18.50
2019-04-14T20:02:19.594Z,18.97
2019-04-14T20:04:48.965Z,17.37
2019-04-14T20:07:18.382Z,17.23
2019-04-14T20:09:47.699Z,17.17
2019-04-14T20:12:17.216Z,17.53
2019-04-14T20:14:46.612Z,21.20
2019-04-14T20:17:32.291Z,20.03
2019-04-14T20:20:27.591Z,18.80
2019-04-14T20:23:21.943Z,17.17
2019-04-14T20:26:13.159Z,18.20
2019-04-14T20:29:03.426Z,17.37
2019-04-14T20:31:51.777Z,16.37
2019-04-14T20:34:21.116Z,17.63
2019-04-14T20:36:50.875Z,16.47
2019-04-14T20:39:21.339Z,16.50
2019-04-14T20:41:50.872Z,21.03
2019-04-14T20:44:20.290Z,16.40
2019-04-14T20:46:49.735Z,17.37
2019-04-14T20:49:28.313Z,16.83
2019-04-14T20:51:57.648Z,15.63
2019-04-14T20:54:27.006Z,18.27
2019-04-14T20:56:56.381Z,16.70
2019-04-14T20:59:25.674Z,17.83
2019-04-14T21:02:02.065Z,16.50
2019-04-14T21:04:38.393Z,21.07
2019-04-14T21:07:41.838Z,17.63
2019-04-14T21:10:21.457Z,16.63
2019-04-14T21:13:12.479Z,15.20
2019-04-14T21:15:46.462Z,17.97
2019-04-14T21:18:18.865Z,17.27
2019-04-14T21:21:22.193Z,15.20
2019-04-14T21:24:10.451Z,16.27
2019-04-14T21:27:10.617Z,15.77
2019-04-14T21:29:49.411Z,16.53
2019-04-14T21:32:24.555Z,16.27
2019-04-14T21:35:02.682Z,16.07
2019-04-14T21:38:02.861Z,14.83
2019-04-14T21:41:06.130Z,15.10
2019-04-14T21:43:35.362Z,16.00
2019-04-14T21:46:04.780Z,15.00
2019-04-14T21:48:34.061Z,13.23
2019-04-14T21:51:03.218Z,14.87
2019-04-14T21:53:32.434Z,15.53
2019-04-14T21:56:12.733Z,15.17
2019-04-14T21:58:42.996Z,15.33
2019-04-14T22:01:52.374Z,15.17
2019-04-14T22:04:36.634Z,14.47
2019-04-14T22:07:42.346Z,14.63
2019-04-14T22:10:40.145Z,16.33
2019-04-14T22:13:09.431Z,13.83
2019-04-14T22:15:39.179Z,12.87
2019-04-14T22:18:08.437Z,12.77
2019-04-14T22:20:37.744Z,12.27
2019-04-14T22:23:09.790Z,11.73
2019-04-14T22:25:39.009Z,11.23
2019-04-14T22:28:08.170Z,13.07
2019-04-14T22:30:37.579Z,11.20
2019-04-14T22:33:06.759Z,10.40
2019-04-14T22:35:35.962Z,11.27
2019-04-14T22:38:05.172Z,11.07
2019-04-14T22:40:34.408Z,10.90
2019-04-14T22:43:03.607Z,10.47
2019-04-14T22:45:32.862Z,12.53
2019-04-14T22:48:02.073Z,12.10
2019-04-14T22:50:31.365Z,11.43
2019-04-14T22:53:00.620Z,10.67
2019-04-14T22:55:29.887Z,11.27
2019-04-14T22:57:59.134Z,9.63
2019-04-14T23:00:42.672Z,10.03
2019-04-14T23:03:46.081Z,12.93
2019-04-14T23:06:52.685Z,10.80
2019-04-14T23:09:40.790Z,10.07
2019-04-14T23:12:27.136Z,10.00
2019-04-14T23:15:21.130Z,9.77
2019-04-14T23:17:59.732Z,10.13
2019-04-14T23:20:57.072Z,10.53
2019-04-14T23:23:54.284Z,11.17
2019-04-14T23:26:23.543Z,10.00
2019-04-14T23:28:52.700Z,10.07
2019-04-14T23:31:21.929Z,10.97
2019-04-14T23:33:51.154Z,8.83
2019-04-14T23:36:20.351Z,9.87
2019-04-14T23:38:49.547Z,10.33
2019-04-14T23:41:18.690Z,9.67
2019-04-14T23:43:47.953Z,9.60
2019-04-14T23:46:17.249Z,10.40
2019-04-14T23:48:46.527Z,11.03
2019-04-14T23:51:15.843Z,10.60
2019-04-14T23:53:45.084Z,10.80
2019-04-14T23:56:14.394Z,10.57
2019-04-14T23:58:43.678Z,12.13
